Time;durP1;ratioP1;P1;durP2;ratioP2;P2;SDS_P1;SDS_P2;PMS_P1;PMS_P2;Temp;Humidity;BMP_temperature;BMP_pressure;BME280_temperature;BME280_humidity;BME280_pressure;Samples;Min_cycle;Max_cycle;Signal;HPM_P1;HPM_P2
2022/08/24 00:00:02;;;;;;;11.75;2.83;;;;;;;26.85;100.00;98076.69;5098984;28;20031;-91
2022/08/24 00:02:27;;;;;;;7.57;2.90;;;;;;;26.80;100.00;98070.88;5098932;28;20036;-92
2022/08/24 00:04:53;;;;;;;8.80;2.70;;;;;;;26.97;100.00;98073.91;5092487;28;22024;-91
2022/08/24 00:07:20;;;;;;;8.57;3.10;;;;;;;27.64;100.00;98069.78;5080022;28;20040;-90
2022/08/24 00:09:47;;;;;;;9.27;3.00;;;;;;;27.22;100.00;98069.91;5085289;28;20110;-90
2022/08/24 00:12:14;;;;;;;7.78;2.70;;;;;;;27.46;100.00;98071.41;5085892;28;20036;-91
2022/08/24 00:14:41;;;;;;;8.98;2.80;;;;;;;27.63;100.00;98068.06;5071863;28;20036;-91
2022/08/24 00:17:06;;;;;;;7.60;2.40;;;;;;;26.98;100.00;98068.44;5085284;28;20043;-90
2022/08/24 00:19:32;;;;;;;9.02;2.78;;;;;;;28.02;100.00;98080.69;5083214;28;20020;-89
2022/08/24 00:21:59;;;;;;;7.15;2.40;;;;;;;27.47;100.00;98073.97;5086091;28;20031;-89
2022/08/24 00:24:25;;;;;;;7.28;2.53;;;;;;;27.68;100.00;98071.19;5081712;28;20025;-90
2022/08/24 00:26:52;;;;;;;9.27;2.90;;;;;;;26.63;100.00;98076.84;5081952;28;20069;-90
2022/08/24 00:29:19;;;;;;;9.65;2.90;;;;;;;26.88;100.00;98062.22;5085217;28;20031;-89
2022/08/24 00:31:45;;;;;;;7.25;2.60;;;;;;;26.83;100.00;98059.91;5095256;28;20039;-90
2022/08/24 00:34:12;;;;;;;7.00;2.25;;;;;;;27.05;100.00;98060.72;5094733;28;20380;-90
2022/08/24 00:36:39;;;;;;;8.25;2.40;;;;;;;26.11;100.00;98069.63;5091144;28;20078;-91
2022/08/24 00:39:08;;;;;;;7.25;2.25;;;;;;;25.83;100.00;98073.69;5087890;28;20034;-91
2022/08/24 00:41:34;;;;;;;8.15;2.38;;;;;;;27.11;100.00;98067.34;5089477;28;20031;-90
2022/08/24 00:44:03;;;;;;;6.55;2.05;;;;;;;26.62;100.00;98067.13;5108204;28;20015;-91
2022/08/24 00:46:44;;;;;;;7.20;2.35;;;;;;;26.17;100.00;98071.75;5101704;28;20082;-91
2022/08/24 00:49:26;;;;;;;6.57;2.30;;;;;;;26.13;100.00;98067.66;5084527;28;20089;-90
2022/08/24 00:52:03;;;;;;;8.13;2.08;;;;;;;26.05;100.00;98059.44;5085346;28;20039;-91
2022/08/24 00:54:32;;;;;;;7.70;2.30;;;;;;;25.66;100.00;98049.22;5084621;28;20048;-89
2022/08/24 00:57:01;;;;;;;8.38;2.22;;;;;;;25.55;100.00;98046.59;5085915;28;20073;-94
2022/08/24 00:59:35;;;;;;;10.15;2.40;;;;;;;25.44;100.00;98041.28;5085385;28;20035;-90
2022/08/24 01:02:12;;;;;;;7.50;2.72;;;;;;;24.91;100.00;98044.63;5086176;28;20042;-91
2022/08/24 01:04:47;;;;;;;7.15;2.30;;;;;;;25.70;100.00;98039.16;5085218;28;20111;-91
2022/08/24 01:07:16;;;;;;;7.22;2.45;;;;;;;25.15;100.00;98032.00;5086602;28;20142;-91
2022/08/24 01:09:41;;;;;;;5.68;2.00;;;;;;;24.64;100.00;98038.69;5079246;28;20038;-92
2022/08/24 01:12:08;;;;;;;6.90;2.05;;;;;;;24.86;100.00;98042.34;5080194;28;20028;-90
2022/08/24 01:14:36;;;;;;;8.18;2.47;;;;;;;24.84;100.00;98047.78;5086158;28;20039;-91
2022/08/24 01:19:53;;;;;;;7.90;2.00;;;;;;;25.40;100.00;98038.06;5082629;28;20456;-90
2022/08/24 01:22:33;;;;;;;7.72;2.10;;;;;;;25.63;100.00;98033.47;5085163;28;20020;-90
2022/08/24 01:24:59;;;;;;;6.20;1.90;;;;;;;26.22;100.00;98042.81;5085808;28;20028;-92
2022/08/24 01:27:25;;;;;;;6.72;1.75;;;;;;;26.11;100.00;98050.91;5083851;28;20032;-93
2022/08/24 01:29:53;;;;;;;6.47;2.08;;;;;;;26.13;100.00;98050.78;5088763;28;20085;-93
2022/08/24 01:32:22;;;;;;;6.93;2.03;;;;;;;27.11;100.00;98043.25;5079962;28;20063;-91
2022/08/24 01:34:48;;;;;;;6.97;1.85;;;;;;;27.31;100.00;98036.97;5087123;28;20032;-94
2022/08/24 01:37:14;;;;;;;6.40;1.58;;;;;;;26.52;100.00;98035.81;5082127;28;20021;-91
2022/08/24 01:39:45;;;;;;;10.43;2.65;;;;;;;26.72;100.00;98038.59;5080518;28;20028;-92
2022/08/24 01:42:13;;;;;;;6.03;2.10;;;;;;;26.81;100.00;98036.97;5084975;28;20031;-92
2022/08/24 01:44:40;;;;;;;7.32;1.70;;;;;;;26.45;100.00;98042.66;5079826;28;20039;-90
2022/08/24 01:47:08;;;;;;;8.65;2.13;;;;;;;26.64;100.00;98041.06;5081079;28;20035;-91
2022/08/24 01:49:46;;;;;;;8.25;2.10;;;;;;;26.42;100.00;98037.59;5084757;28;20562;-89
2022/08/24 01:52:15;;;;;;;7.03;2.00;;;;;;;26.56;100.00;98045.25;5081788;28;20062;-91
2022/08/24 01:54:42;;;;;;;7.63;2.15;;;;;;;26.96;100.00;98032.94;5085223;28;20091;-92
2022/08/24 01:57:08;;;;;;;6.68;2.20;;;;;;;26.93;100.00;98030.53;5083162;28;20061;-92
2022/08/24 01:59:34;;;;;;;10.77;2.35;;;;;;;26.90;100.00;98041.50;5082267;28;20035;-89
2022/08/24 02:02:15;;;;;;;7.60;2.28;;;;;;;27.06;100.00;98041.00;5083240;28;20927;-92
2022/08/24 02:04:41;;;;;;;7.97;2.08;;;;;;;27.80;100.00;98039.75;5083717;28;20032;-93
2022/08/24 02:07:08;;;;;;;6.45;2.35;;;;;;;28.03;100.00;98037.66;5075591;28;20101;-92
2022/08/24 02:09:35;;;;;;;6.55;1.98;;;;;;;27.41;100.00;98037.03;5079598;28;20372;-91
2022/08/24 02:12:01;;;;;;;7.63;1.98;;;;;;;26.55;100.00;98032.88;5076457;28;20119;-90
2022/08/24 02:14:27;;;;;;;6.78;1.88;;;;;;;26.26;100.00;98031.88;5081827;28;20040;-90
2022/08/24 02:16:53;;;;;;;6.88;2.10;;;;;;;26.29;100.00;98034.28;5083407;28;20038;-90
2022/08/24 02:19:19;;;;;;;8.70;2.10;;;;;;;25.72;100.00;98032.72;5083617;28;20036;-90
2022/08/24 02:21:45;;;;;;;7.22;2.42;;;;;;;26.21;100.00;98042.97;5083000;28;20112;-92
2022/08/24 02:24:11;;;;;;;9.15;2.65;;;;;;;26.15;100.00;98035.44;5085799;28;20028;-91
2022/08/24 02:26:36;;;;;;;8.57;2.30;;;;;;;25.69;100.00;98029.44;5085272;28;20579;-92
2022/08/24 02:29:03;;;;;;;6.82;2.50;;;;;;;25.78;100.00;98028.69;5098181;28;20536;-91
2022/08/24 02:31:28;;;;;;;7.72;2.30;;;;;;;25.61;100.00;98026.56;5083381;28;20039;-91
2022/08/24 02:33:54;;;;;;;9.52;2.15;;;;;;;26.16;100.00;98029.97;5082031;28;20112;-91
2022/08/24 02:36:19;;;;;;;7.82;2.40;;;;;;;26.06;100.00;98037.91;5084975;28;20046;-90
2022/08/24 02:38:45;;;;;;;10.55;2.40;;;;;;;26.27;100.00;98033.56;5075196;28;20900;-90
2022/08/24 02:41:11;;;;;;;8.20;2.20;;;;;;;25.75;100.00;98033.41;5069778;28;20085;-91
2022/08/24 02:43:36;;;;;;;10.68;2.60;;;;;;;25.60;100.00;98022.22;5083777;28;20039;-91
2022/08/24 02:46:02;;;;;;;11.98;2.90;;;;;;;25.43;100.00;98018.25;5087539;28;20054;-92
2022/08/24 02:48:28;;;;;;;7.25;2.55;;;;;;;25.44;100.00;98022.63;5103200;28;20024;-92
2022/08/24 02:50:54;;;;;;;10.35;2.92;;;;;;;25.95;100.00;98018.41;5104649;28;20028;-92
2022/08/24 02:53:21;;;;;;;7.82;2.63;;;;;;;25.21;100.00;98012.81;5085157;28;20494;-92
2022/08/24 02:55:47;;;;;;;7.75;2.67;;;;;;;25.46;100.00;98012.69;5087477;28;20146;-91
2022/08/24 02:58:15;;;;;;;9.32;2.50;;;;;;;25.56;100.00;98011.75;5099375;28;20008;-91
2022/08/24 03:00:42;;;;;;;8.02;2.53;;;;;;;25.51;100.00;98010.44;5110595;28;20554;-91
2022/08/24 03:03:10;;;;;;;9.80;2.60;;;;;;;25.37;100.00;98006.25;5099973;28;20035;-92
2022/08/24 03:05:36;;;;;;;7.85;2.30;;;;;;;25.61;100.00;98002.53;5090306;28;20468;-92
2022/08/24 03:08:02;;;;;;;10.30;2.67;;;;;;;25.31;100.00;97993.38;5086357;28;20103;-90
2022/08/24 03:10:27;;;;;;;10.02;2.72;;;;;;;25.18;100.00;97986.38;5085249;28;20039;-92
2022/08/24 03:12:53;;;;;;;7.60;2.70;;;;;;;25.37;100.00;97987.56;5088646;28;20384;-90
2022/08/24 03:15:23;;;;;;;13.93;3.40;;;;;;;25.14;100.00;97984.94;5084991;28;20045;-91
2022/08/24 03:17:49;;;;;;;8.48;2.72;;;;;;;25.17;100.00;97982.00;5082951;28;20122;-91
2022/08/24 03:20:18;;;;;;;8.70;2.33;;;;;;;25.34;100.00;97995.81;5076369;28;20028;-92
2022/08/24 03:22:45;;;;;;;7.43;2.60;;;;;;;25.51;100.00;97991.75;5081185;28;20047;-91
2022/08/24 03:25:11;;;;;;;7.57;2.50;;;;;;;26.04;100.00;97997.13;5085518;28;20024;-92
2022/08/24 03:27:37;;;;;;;11.02;2.90;;;;;;;25.77;100.00;97991.41;5083378;28;20145;-92
2022/08/24 03:30:14;;;;;;;8.60;3.00;;;;;;;25.69;100.00;97984.91;5075019;28;20119;-90
2022/08/24 03:32:41;;;;;;;9.70;2.90;;;;;;;25.41;100.00;97983.66;5074229;28;20449;-92
2022/08/24 03:35:07;;;;;;;9.15;2.97;;;;;;;25.54;100.00;97980.84;5071890;28;20032;-90
2022/08/24 03:37:33;;;;;;;10.00;3.40;;;;;;;25.65;100.00;97966.59;5075535;28;20040;-90
2022/08/24 03:39:58;;;;;;;8.80;3.38;;;;;;;25.43;100.00;97976.41;5087240;28;20028;-91
2022/08/24 03:42:24;;;;;;;11.52;3.67;;;;;;;25.25;100.00;97980.53;5087533;28;20119;-91
2022/08/24 03:44:50;;;;;;;9.52;3.40;;;;;;;25.45;100.00;97981.59;5085937;28;20445;-90
2022/08/24 03:47:16;;;;;;;11.75;3.80;;;;;;;25.18;100.00;97972.19;5088212;28;20027;-93
2022/08/24 03:49:41;;;;;;;9.18;3.90;;;;;;;25.40;100.00;97968.66;5089563;28;20078;-91
2022/08/24 03:52:07;;;;;;;15.07;5.15;;;;;;;25.14;100.00;97968.94;5086992;28;20519;-92
2022/08/24 03:54:33;;;;;;;12.50;5.07;;;;;;;25.53;100.00;97960.47;5089641;28;20052;-94
2022/08/24 03:56:58;;;;;;;13.40;5.28;;;;;;;25.62;100.00;97973.03;5082213;28;20028;-91
2022/08/24 03:59:24;;;;;;;13.63;6.47;;;;;;;25.87;100.00;97973.63;5077892;28;20453;-93
2022/08/24 04:01:50;;;;;;;15.65;6.63;;;;;;;25.17;100.00;97958.00;5083921;28;20174;-93
2022/08/24 04:04:16;;;;;;;16.70;7.30;;;;;;;25.53;100.00;97958.63;5083724;28;20075;-89
2022/08/24 04:06:43;;;;;;;15.02;6.43;;;;;;;25.46;100.00;97965.47;5074760;28;20039;-91
2022/08/24 04:09:10;;;;;;;13.73;6.85;;;;;;;26.15;100.00;97961.47;5076040;28;20028;-90
2022/08/24 04:11:36;;;;;;;17.10;6.78;;;;;;;25.31;100.00;97954.19;5081029;28;20031;-91
2022/08/24 04:14:02;;;;;;;16.35;7.28;;;;;;;25.61;100.00;97941.09;5077218;28;20028;-90
2022/08/24 04:16:28;;;;;;;16.05;6.57;;;;;;;25.59;100.00;97946.59;5075463;28;20036;-91
2022/08/24 04:18:56;;;;;;;13.10;7.18;;;;;;;25.75;100.00;97945.28;5077671;28;20494;-90
2022/08/24 04:21:31;;;;;;;16.05;8.02;;;;;;;26.10;100.00;97939.66;5074531;28;20043;-90
2022/08/24 04:23:58;;;;;;;13.63;7.10;;;;;;;25.08;100.00;97936.56;5075676;28;20020;-91
2022/08/24 04:26:26;;;;;;;16.08;7.70;;;;;;;25.81;100.00;97942.94;5075579;28;20975;-91
2022/08/24 04:28:52;;;;;;;15.75;6.97;;;;;;;25.86;100.00;97938.06;5076226;28;20082;-91
2022/08/24 04:31:18;;;;;;;13.38;6.85;;;;;;;25.69;100.00;97938.63;5072375;28;20028;-90
2022/08/24 04:33:46;;;;;;;16.23;7.38;;;;;;;26.02;100.00;97947.47;5083164;28;20040;-90
2022/08/24 04:36:12;;;;;;;13.45;7.28;;;;;;;25.35;100.00;97939.66;5081576;28;20833;-90
2022/08/24 04:38:38;;;;;;;16.20;7.32;;;;;;;25.15;100.00;97930.59;5078555;28;20414;-90
2022/08/24 04:41:06;;;;;;;16.83;7.93;;;;;;;25.24;100.00;97929.00;5078346;28;20024;-90
2022/08/24 04:43:33;;;;;;;15.35;7.18;;;;;;;25.26;100.00;97929.72;5078933;28;20036;-91
2022/08/24 04:45:59;;;;;;;13.70;6.68;;;;;;;25.43;100.00;97930.16;5076603;28;20035;-90
2022/08/24 04:48:25;;;;;;;13.25;6.75;;;;;;;25.72;100.00;97928.56;5075966;28;20031;-91
2022/08/24 04:50:51;;;;;;;15.13;7.13;;;;;;;25.50;100.00;97934.03;5078303;28;20044;-90
2022/08/24 04:53:16;;;;;;;13.05;6.13;;;;;;;25.47;100.00;97932.47;5074245;28;20166;-90
2022/08/24 04:55:49;;;;;;;17.13;6.65;;;;;;;25.45;100.00;97941.56;5088860;27;20048;-91
2022/08/24 04:58:16;;;;;;;14.00;6.40;;;;;;;24.91;100.00;97937.94;5071535;28;20032;-91
2022/08/24 05:00:43;;;;;;;12.15;6.13;;;;;;;25.32;100.00;97933.72;5078860;28;20123;-93
2022/08/24 05:03:10;;;;;;;12.75;6.03;;;;;;;25.15;100.00;97940.41;5086180;28;20198;-90
2022/08/24 05:05:40;;;;;;;11.50;5.70;;;;;;;24.89;100.00;97948.75;5100126;28;20024;-90
2022/08/24 05:08:07;;;;;;;11.55;6.40;;;;;;;25.37;100.00;97947.53;5086738;28;20124;-90
2022/08/24 05:10:32;;;;;;;11.68;5.63;;;;;;;25.11;100.00;97933.63;5086398;28;20053;-91
2022/08/24 05:12:58;;;;;;;15.30;6.28;;;;;;;24.91;100.00;97945.94;5083833;28;20028;-90
2022/08/24 05:15:23;;;;;;;10.25;5.05;;;;;;;25.33;100.00;97948.75;5092521;28;21982;-91
2022/08/24 05:17:49;;;;;;;10.02;5.32;;;;;;;24.94;100.00;97943.03;5100974;28;20028;-90
2022/08/24 05:20:16;;;;;;;13.90;6.30;;;;;;;25.13;100.00;97951.22;5085073;28;20375;-90
2022/08/24 05:22:41;;;;;;;11.70;5.47;;;;;;;25.17;100.00;97941.16;5078405;28;20036;-91
2022/08/24 05:25:07;;;;;;;11.40;5.82;;;;;;;25.33;100.00;97936.28;5078284;28;20039;-90
2022/08/24 05:27:35;;;;;;;13.38;5.70;;;;;;;25.28;100.00;97935.78;5076096;28;20039;-91
2022/08/24 05:30:02;;;;;;;11.63;5.90;;;;;;;25.38;100.00;97944.72;5075707;28;20059;-90
2022/08/24 05:32:27;;;;;;;11.20;5.22;;;;;;;25.07;100.00;97941.06;5072944;28;20039;-90
2022/08/24 05:34:53;;;;;;;11.57;5.50;;;;;;;25.12;100.00;97933.53;5075490;28;21061;-90
2022/08/24 05:37:18;;;;;;;10.48;5.38;;;;;;;25.49;100.00;97946.50;5077611;28;20081;-90
2022/08/24 05:39:44;;;;;;;11.25;5.63;;;;;;;25.08;100.00;97941.91;5075626;28;20052;-90
2022/08/24 05:42:10;;;;;;;12.90;5.20;;;;;;;25.79;100.00;97939.56;5079042;28;20032;-90
2022/08/24 05:44:38;;;;;;;11.10;5.25;;;;;;;25.30;100.00;97944.50;5087560;28;20031;-90
2022/08/24 05:47:10;;;;;;;11.88;5.43;;;;;;;25.69;100.00;97952.00;5076786;28;20425;-91
2022/08/24 05:49:36;;;;;;;10.73;5.22;;;;;;;25.50;100.00;97958.06;5074035;28;20043;-91
2022/08/24 05:52:02;;;;;;;11.50;5.10;;;;;;;25.72;100.00;97967.75;5076447;28;20098;-90
2022/08/24 05:54:28;;;;;;;10.75;5.20;;;;;;;25.70;100.00;97962.53;5073772;28;20501;-93
2022/08/24 05:56:54;;;;;;;10.13;4.15;;;;;;;25.39;100.00;97969.63;5077839;28;20028;-91
2022/08/24 05:59:21;;;;;;;9.25;4.55;;;;;;;25.49;100.00;97957.19;5072676;28;20543;-90
2022/08/24 06:01:47;;;;;;;9.93;4.57;;;;;;;25.73;100.00;97981.00;5073579;28;20040;-91
2022/08/24 06:04:13;;;;;;;10.38;4.65;;;;;;;25.16;100.00;97975.00;5073615;28;20077;-90
2022/08/24 06:06:39;;;;;;;9.82;4.60;;;;;;;25.41;100.00;97994.34;5074365;28;20032;-90
2022/08/24 06:09:10;;;;;;;10.50;4.38;;;;;;;25.79;100.00;98001.00;5073671;28;20024;-91
2022/08/24 06:11:37;;;;;;;10.75;4.68;;;;;;;25.74;100.00;97987.19;5078389;28;20776;-90
2022/08/24 06:14:08;;;;;;;9.45;4.53;;;;;;;25.37;100.00;98003.56;5073419;28;20058;-90
2022/08/24 06:16:38;;;;;;;10.70;4.90;;;;;;;25.84;100.00;97995.25;5088206;28;20031;-90
2022/08/24 06:19:05;;;;;;;11.52;4.97;;;;;;;25.24;100.00;97990.38;5067323;28;20032;-88
2022/08/24 06:21:32;;;;;;;10.25;4.88;;;;;;;25.36;100.00;97985.88;5075268;28;20032;-88
2022/08/24 06:23:59;;;;;;;9.93;4.47;;;;;;;25.35;100.00;97982.34;5070553;28;20108;-88
2022/08/24 06:29:09;;;;;;;9.32;4.20;;;;;;;26.81;100.00;97984.31;5073857;28;21203;-90
2022/08/24 06:31:40;;;;;;;9.65;4.38;;;;;;;25.56;100.00;97985.06;5077645;28;20143;-89
2022/08/24 06:34:12;;;;;;;10.02;3.88;;;;;;;26.19;100.00;97978.94;5076789;28;20069;-91
2022/08/24 06:36:38;;;;;;;8.60;3.97;;;;;;;25.95;100.00;97992.53;5077977;28;20028;-90
2022/08/24 06:39:04;;;;;;;9.90;3.90;;;;;;;25.81;100.00;97990.19;5074237;28;20047;-89
2022/08/24 06:41:30;;;;;;;8.23;3.78;;;;;;;26.08;100.00;97994.19;5079040;28;20046;-89
2022/08/24 06:43:56;;;;;;;10.00;3.72;;;;;;;25.79;100.00;97998.34;5073655;28;20558;-92
2022/08/24 06:46:21;;;;;;;8.23;3.60;;;;;;;25.73;100.00;98005.03;5074680;28;20036;-92
2022/08/24 06:48:47;;;;;;;7.80;2.85;;;;;;;25.71;100.00;98000.81;5074916;28;20032;-91
2022/08/24 06:51:17;;;;;;;7.57;3.05;;;;;;;26.15;100.00;97998.91;5075185;28;20032;-93
2022/08/24 06:53:43;;;;;;;7.90;3.30;;;;;;;25.80;100.00;98007.19;5087324;28;20159;-92
2022/08/24 06:56:09;;;;;;;6.75;2.65;;;;;;;26.04;100.00;98014.97;5077680;28;20159;-92
2022/08/24 06:58:36;;;;;;;7.60;3.40;;;;;;;25.82;100.00;98014.09;5075665;28;20116;-91
2022/08/24 07:01:12;;;;;;;7.43;3.03;;;;;;;26.19;100.00;98027.06;5087423;28;20055;-93
2022/08/24 07:03:38;;;;;;;7.78;2.95;;;;;;;26.02;100.00;98020.44;5075393;28;20024;-91
2022/08/24 07:06:05;;;;;;;8.63;3.00;;;;;;;26.01;100.00;98012.53;5074257;28;20387;-92
2022/08/24 07:08:31;;;;;;;7.68;3.10;;;;;;;26.46;100.00;98030.13;5073471;28;20637;-91
2022/08/24 07:10:57;;;;;;;7.63;2.83;;;;;;;26.19;100.00;98028.88;5079852;28;20033;-91
2022/08/24 07:13:22;;;;;;;8.75;2.90;;;;;;;26.15;100.00;98033.63;5076667;28;20024;-92
2022/08/24 07:15:49;;;;;;;6.97;2.90;;;;;;;25.92;100.00;98034.72;5080124;28;20024;-91
2022/08/24 07:18:16;;;;;;;8.60;2.97;;;;;;;26.43;100.00;98038.44;5083340;28;20040;-91
2022/08/24 07:20:42;;;;;;;7.65;2.88;;;;;;;25.58;100.00;98033.03;5107167;28;20024;-91
2022/08/24 07:23:11;;;;;;;9.15;2.95;;;;;;;25.42;100.00;98036.09;5110600;28;20039;-92
2022/08/24 07:25:37;;;;;;;7.45;2.72;;;;;;;24.83;100.00;98024.75;5092642;28;20034;-89
2022/08/24 07:28:03;;;;;;;9.07;3.40;;;;;;;24.52;100.00;98021.81;5096497;28;20068;-89
2022/08/24 07:30:29;;;;;;;8.77;3.13;;;;;;;24.91;100.00;98048.13;5101299;28;20024;-89
2022/08/24 07:32:56;;;;;;;9.15;2.90;;;;;;;25.17;100.00;98043.38;5111751;28;20036;-92
2022/08/24 07:35:26;;;;;;;7.53;2.80;;;;;;;25.36;100.00;98047.28;5098932;28;20054;-91
2022/08/24 07:37:54;;;;;;;8.27;3.10;;;;;;;25.05;100.00;98042.56;5087573;28;20560;-92
2022/08/24 07:40:20;;;;;;;8.07;3.20;;;;;;;25.54;100.00;98058.28;5086180;28;20031;-92
2022/08/24 07:42:50;;;;;;;7.13;2.92;;;;;;;25.30;100.00;98047.72;5087769;28;20070;-89
2022/08/24 07:45:15;;;;;;;7.95;3.03;;;;;;;25.04;100.00;98054.19;5088038;28;20043;-89
2022/08/24 07:47:42;;;;;;;9.30;3.10;;;;;;;24.80;100.00;98046.34;5088884;28;20689;-90
2022/08/24 07:50:08;;;;;;;7.95;3.10;;;;;;;25.43;100.00;98052.94;5081377;28;20032;-88
2022/08/24 07:52:37;;;;;;;7.78;3.15;;;;;;;25.41;100.00;98053.06;5086510;28;20032;-88
2022/08/24 07:55:03;;;;;;;8.35;3.05;;;;;;;25.04;100.00;98054.19;5082371;28;20097;-94
2022/08/24 07:57:29;;;;;;;7.10;2.90;;;;;;;25.05;100.00;98071.91;5081766;28;20028;-91
2022/08/24 07:59:58;;;;;;;8.10;3.42;;;;;;;25.31;100.00;98060.94;5086930;28;20034;-92
2022/08/24 08:02:24;;;;;;;7.35;3.13;;;;;;;26.33;100.00;98067.78;5089739;28;20036;-94
2022/08/24 08:04:49;;;;;;;8.85;3.00;;;;;;;26.10;100.00;98075.09;5087923;27;20039;-93
2022/08/24 08:07:16;;;;;;;7.65;3.13;;;;;;;25.38;100.00;98066.66;5084547;28;20023;-94
2022/08/24 08:09:42;;;;;;;7.53;2.80;;;;;;;25.20;100.00;98051.13;5087768;28;20119;-93
2022/08/24 08:12:08;;;;;;;7.78;2.97;;;;;;;25.02;100.00;98072.16;5081833;28;20601;-93
2022/08/24 08:14:35;;;;;;;7.22;2.72;;;;;;;24.43;100.00;98064.34;5069303;28;20131;-93
2022/08/24 08:17:00;;;;;;;7.00;2.90;;;;;;;25.43;100.00;98072.50;5077791;28;20032;-92
2022/08/24 08:19:26;;;;;;;6.90;2.60;;;;;;;25.27;100.00;98067.50;5084372;28;20121;-92
2022/08/24 08:24:49;;;;;;;7.18;2.70;;;;;;;25.49;100.00;98066.63;5091525;28;20043;-91
2022/08/24 08:27:15;;;;;;;6.75;2.50;;;;;;;25.63;100.00;98076.19;5081335;28;20128;-91
2022/08/24 08:29:42;;;;;;;6.93;2.47;;;;;;;24.67;100.00;98075.75;5083251;28;20566;-91
2022/08/24 08:32:10;;;;;;;6.60;2.45;;;;;;;25.09;100.00;98075.16;5087302;28;20119;-92
2022/08/24 08:34:36;;;;;;;8.02;2.58;;;;;;;24.98;100.00;98083.19;5087500;28;20124;-92
2022/08/24 08:37:02;;;;;;;7.45;2.90;;;;;;;25.18;100.00;98071.78;5086970;28;20087;-90
2022/08/24 08:39:28;;;;;;;7.18;2.60;;;;;;;24.13;100.00;98063.88;5071238;28;20082;-90
2022/08/24 08:42:28;;;;;;;6.93;2.00;;;;;;;24.66;100.00;98059.88;5069863;28;20033;-93
2022/08/24 08:44:59;;;;;;;4.90;1.50;;;;;;;24.29;100.00;98062.72;5063735;28;20123;-93
2022/08/24 08:48:03;;;;;;;4.43;1.00;;;;;;;24.08;100.00;98059.84;5085767;28;20051;-91
2022/08/24 08:50:32;;;;;;;;;;;;;;;24.54;100.00;98059.00;5090957;28;20052;-92
2022/08/24 08:53:24;;;;;;;4.25;1.20;;;;;;;24.40;100.00;98051.22;5088500;28;20446;-93
2022/08/24 08:56:02;;;;;;;3.50;0.98;;;;;;;24.95;100.00;98054.91;5090984;28;20048;-90
2022/08/24 08:59:03;;;;;;;3.38;0.93;;;;;;;24.30;100.00;98083.06;5073406;28;20034;-92
2022/08/24 09:01:35;;;;;;;2.90;0.90;;;;;;;24.25;100.00;98093.25;5069217;28;20051;-92
2022/08/24 09:04:40;;;;;;;3.28;0.93;;;;;;;23.92;100.00;98098.31;5078102;28;20103;-92
2022/08/24 09:07:14;;;;;;;4.75;1.10;;;;;;;24.11;100.00;98103.13;5088326;28;20028;-91
2022/08/24 09:09:46;;;;;;;2.17;0.80;;;;;;;24.48;100.00;98103.00;5089217;28;20035;-93
2022/08/24 09:12:53;;;;;;;4.75;1.00;;;;;;;23.79;100.00;98098.34;5087766;28;20032;-92
2022/08/24 09:16:07;;;;;;;2.53;0.80;;;;;;;24.12;100.00;98104.81;5087032;28;20032;-93
2022/08/24 09:19:10;;;;;;;2.25;0.68;;;;;;;24.88;100.00;98107.94;5010068;28;20080;-92
2022/08/24 09:21:48;;;;;;;2.27;0.70;;;;;;;25.27;100.00;98120.03;5024107;28;20144;-91
2022/08/24 09:24:46;;;;;;;2.22;0.50;;;;;;;25.17;100.00;98107.41;5025677;28;20033;-92
2022/08/24 09:27:44;;;;;;;0.98;0.30;;;;;;;25.33;100.00;98108.91;5025793;28;20597;-92
2022/08/24 09:30:23;;;;;;;0.90;0.47;;;;;;;26.03;100.00;98109.50;5001067;28;20060;-93
2022/08/24 09:33:12;;;;;;;1.58;0.40;;;;;;;25.73;100.00;98121.69;5013178;28;20056;-91
2022/08/24 09:35:49;;;;;;;1.75;0.30;;;;;;;25.94;100.00;98134.25;5042609;28;20033;-94
2022/08/24 09:38:37;;;;;;;1.10;0.30;;;;;;;26.49;100.00;98134.19;5047093;28;20029;-90
2022/08/24 09:41:11;;;;;;;0.60;0.20;;;;;;;25.66;100.00;98125.84;5020335;28;20037;-91
2022/08/24 09:44:08;;;;;;;0.90;0.30;;;;;;;26.11;100.00;98130.22;5028818;28;20045;-91
2022/08/24 09:47:21;;;;;;;1.20;0.30;;;;;;;26.33;100.00;98132.81;5029865;28;20013;-91
2022/08/24 09:50:25;;;;;;;0.70;0.20;;;;;;;26.46;100.00;98139.75;5044131;28;20045;-91
2022/08/24 09:53:16;;;;;;;0.88;0.32;;;;;;;26.73;100.00;98136.59;5008935;28;20041;-92
2022/08/24 09:56:12;;;;;;;2.58;0.47;;;;;;;26.21;100.00;98140.00;5066286;28;20055;-92
2022/08/24 09:59:00;;;;;;;3.30;0.80;;;;;;;26.41;100.00;98148.19;5073435;28;20629;-91
2022/08/24 10:01:38;;;;;;;3.15;0.70;;;;;;;26.34;100.00;98150.53;5087592;28;20031;-91
2022/08/24 10:04:23;;;;;;;2.95;0.80;;;;;;;26.59;100.00;98148.44;5080952;28;20045;-92
2022/08/24 10:07:13;;;;;;;4.78;1.30;;;;;;;26.57;100.00;98153.94;5086614;28;20047;-93
2022/08/24 10:10:07;;;;;;;3.55;0.90;;;;;;;26.89;100.00;98154.88;5087450;28;20529;-92
2022/08/24 10:12:42;;;;;;;3.92;1.00;;;;;;;27.05;100.00;98157.06;5086598;28;20032;-92
2022/08/24 10:15:19;;;;;;;4.53;0.98;;;;;;;27.82;100.00;98153.00;5087289;28;20788;-92
2022/08/24 10:18:21;;;;;;;3.15;0.80;;;;;;;27.34;100.00;98159.03;5085722;28;20032;-92
2022/08/24 10:21:03;;;;;;;2.70;0.57;;;;;;;27.98;100.00;98154.28;5086636;28;20055;-92
2022/08/24 10:23:39;;;;;;;4.55;0.80;;;;;;;29.63;100.00;98169.28;5086325;28;20392;-92
2022/08/24 10:26:22;;;;;;;2.38;0.70;;;;;;;29.94;100.00;98173.53;5077905;28;20328;-91
2022/08/24 10:29:12;;;;;;;1.30;0.60;;;;;;;29.73;100.00;98192.56;5085982;28;20110;-91
2022/08/24 10:31:37;;;;;;;2.22;0.80;;;;;;;28.20;100.00;98196.09;5087719;28;20039;-91
2022/08/24 10:34:28;;;;;;;2.67;0.85;;;;;;;27.49;100.00;98180.94;5087477;28;20047;-92
2022/08/24 10:37:41;;;;;;;2.55;0.60;;;;;;;28.14;100.00;98181.41;5086730;28;20032;-91
2022/08/24 10:40:30;;;;;;;2.70;0.70;;;;;;;29.18;100.00;98187.97;5079448;28;20048;-91
2022/08/24 10:45:58;;;;;;;1.95;0.50;;;;;;;28.75;100.00;98184.81;5087469;28;20035;-91
2022/08/24 10:48:29;;;;;;;1.50;0.43;;;;;;;28.99;100.00;98189.72;5086090;28;20047;-93
2022/08/24 10:51:06;;;;;;;1.10;0.50;;;;;;;29.80;100.00;98196.34;5081030;28;20040;-93
2022/08/24 10:53:32;;;;;;;3.35;0.70;;;;;;;28.13;100.00;98192.25;5083095;28;20028;-92
2022/08/24 10:56:12;;;;;;;1.67;0.57;;;;;;;28.50;100.00;98189.75;5067245;28;20393;-91
2022/08/24 10:58:58;;;;;;;2.65;0.50;;;;;;;29.22;100.00;98206.31;5070147;28;20093;-94
2022/08/24 11:01:28;;;;;;;1.50;0.50;;;;;;;28.92;100.00;98210.94;5086608;28;20036;-91
2022/08/24 11:04:01;;;;;;;2.38;0.50;;;;;;;28.43;100.00;98204.72;5074164;28;20063;-91
2022/08/24 11:06:43;;;;;;;2.75;0.50;;;;;;;29.91;100.00;98200.69;5081318;28;20040;-93
2022/08/24 11:09:11;;;;;;;1.10;0.38;;;;;;;29.13;100.00;98207.22;5087186;28;20024;-93
2022/08/24 11:11:45;;;;;;;2.08;0.47;;;;;;;28.25;100.00;98210.78;5074794;28;20113;-91
2022/08/24 11:14:25;;;;;;;1.40;0.43;;;;;;;27.97;100.00;98216.91;5088259;28;20115;-92
2022/08/24 11:16:51;;;;;;;1.67;0.40;;;;;;;28.14;100.00;98216.25;5085619;28;20046;-91
2022/08/24 11:19:32;;;;;;;2.60;0.77;;;;;;;28.54;100.00;98204.56;5084280;28;20036;-92
2022/08/24 11:22:23;;;;;;;2.85;0.75;;;;;;;28.58;100.00;98211.34;5086788;28;20034;-92
2022/08/24 11:24:53;;;;;;;2.42;0.63;;;;;;;29.37;100.00;98208.59;5077748;28;20137;-93
2022/08/24 11:27:24;;;;;;;2.42;0.70;;;;;;;29.32;100.00;98211.69;5068971;28;20025;-92
2022/08/24 11:29:50;;;;;;;6.18;1.05;;;;;;;29.54;100.00;98220.38;5078857;28;20032;-92
2022/08/24 11:32:50;;;;;;;5.40;1.00;;;;;;;28.77;100.00;98215.06;5083740;28;20035;-92
2022/08/24 11:35:18;;;;;;;2.08;0.57;;;;;;;29.14;100.00;98219.63;5065936;28;20143;-91
2022/08/24 11:37:45;;;;;;;1.80;0.50;;;;;;;28.94;100.00;98234.94;5082569;28;20035;-91
2022/08/24 11:40:13;;;;;;;2.15;0.50;;;;;;;29.86;100.00;98235.25;5089772;28;20032;-92
2022/08/24 11:42:47;;;;;;;2.83;0.50;;;;;;;29.63;100.00;98230.22;5089465;28;20032;-91
2022/08/24 11:45:22;;;;;;;0.80;0.30;;;;;;;29.11;100.00;98231.50;5096979;28;20096;-91
2022/08/24 11:47:54;;;;;;;1.92;0.40;;;;;;;29.72;100.00;98228.50;5125536;28;20064;-91
2022/08/24 11:50:32;;;;;;;;;;;;;;;29.27;100.00;98230.94;5108964;28;20022;-91
2022/08/24 11:53:15;;;;;;;0.65;0.30;;;;;;;29.35;100.00;98215.94;5107905;28;19920;-91